createdAt,value
2022-11-29T00:01:35.126Z,1.90
2022-11-29T00:04:02.668Z,1.77
2022-11-29T00:06:40.154Z,1.80
2022-11-29T00:09:11.596Z,1.65
2022-11-29T00:11:58.321Z,1.75
2022-11-29T00:14:26.468Z,1.60
2022-11-29T00:16:56.456Z,2.00
2022-11-29T00:19:33.321Z,1.63
2022-11-29T00:22:03.840Z,1.60
2022-11-29T00:24:32.494Z,1.52
2022-11-29T00:27:01.930Z,1.75
2022-11-29T00:29:31.006Z,1.90
2022-11-29T00:31:57.513Z,1.92
2022-11-29T00:34:24.168Z,2.05
2022-11-29T00:36:50.685Z,2.30
2022-11-29T00:39:19.024Z,2.50
2022-11-29T00:41:46.675Z,2.85
2022-11-29T00:44:19.614Z,2.67
2022-11-29T00:46:47.606Z,2.15
2022-11-29T00:49:14.124Z,1.92
2022-11-29T00:51:40.924Z,1.80
2022-11-29T00:54:09.586Z,1.67
2022-11-29T00:56:36.069Z,2.17
2022-11-29T00:59:02.577Z,1.65
2022-11-29T01:01:31.233Z,1.48
2022-11-29T01:03:57.945Z,1.45
2022-11-29T01:06:24.447Z,1.30
2022-11-29T01:08:54.438Z,1.48
2022-11-29T01:11:25.628Z,1.65
2022-11-29T01:13:55.764Z,1.45
2022-11-29T01:16:22.378Z,1.40
2022-11-29T01:18:49.022Z,0.90
2022-11-29T01:21:18.977Z,1.10
2022-11-29T01:23:46.640Z,0.95
2022-11-29T01:26:18.369Z,1.05
2022-11-29T01:28:47.253Z,1.00
2022-11-29T01:31:18.632Z,1.00
2022-11-29T01:33:50.657Z,0.93
2022-11-29T01:36:17.192Z,0.88
2022-11-29T01:38:43.748Z,1.08
2022-11-29T01:41:17.099Z,1.00
2022-11-29T01:44:07.078Z,0.60
2022-11-29T01:46:43.661Z,0.52
2022-11-29T01:49:19.447Z,0.90
2022-11-29T01:54:14.905Z,1.30
2022-11-29T01:56:44.341Z,0.90
2022-11-29T01:59:14.692Z,1.10
2022-11-29T02:01:41.590Z,1.00
2022-11-29T02:04:08.877Z,1.40
2022-11-29T02:06:36.666Z,1.25
2022-11-29T02:09:03.831Z,1.40
2022-11-29T02:12:04.256Z,1.58
2022-11-29T02:15:11.551Z,0.95
2022-11-29T02:17:53.873Z,1.17
2022-11-29T02:20:32.130Z,0.80
2022-11-29T02:23:23.180Z,0.88
2022-11-29T02:26:20.372Z,1.15
2022-11-29T02:29:05.091Z,0.93
2022-11-29T02:31:40.395Z,1.17
2022-11-29T02:34:08.750Z,1.08
2022-11-29T02:36:52.121Z,1.30
2022-11-29T02:39:38.253Z,1.17
2022-11-29T02:42:16.776Z,1.35
2022-11-29T02:45:09.797Z,1.17
2022-11-29T02:48:26.945Z,1.33
2022-11-29T02:51:22.542Z,1.05
2022-11-29T02:54:02.011Z,1.08
2022-11-29T02:56:43.531Z,1.30
2022-11-29T02:59:22.531Z,1.45
2022-11-29T03:02:03.530Z,0.90
2022-11-29T03:04:51.685Z,1.30
2022-11-29T03:07:41.309Z,1.58
2022-11-29T03:10:23.117Z,1.23
2022-11-29T03:12:52.807Z,1.13
2022-11-29T03:15:44.738Z,1.35
2022-11-29T03:18:51.013Z,1.48
2022-11-29T03:21:31.433Z,1.10
2022-11-29T03:24:04.879Z,1.60
2022-11-29T03:26:42.249Z,1.08
2022-11-29T03:29:14.918Z,1.23
2022-11-29T03:31:54.417Z,1.38
2022-11-29T03:34:57.818Z,0.98
2022-11-29T03:37:44.434Z,1.00
2022-11-29T03:40:19.059Z,1.20
2022-11-29T03:43:00.722Z,1.55
2022-11-29T03:45:39.033Z,1.27
2022-11-29T03:48:19.202Z,1.00
2022-11-29T03:50:53.730Z,1.00
2022-11-29T03:53:57.541Z,0.90
2022-11-29T03:56:37.366Z,1.50
2022-11-29T03:59:19.550Z,1.10
2022-11-29T04:02:26.416Z,1.33
2022-11-29T04:05:08.110Z,1.10
2022-11-29T04:07:52.657Z,1.00
2022-11-29T04:10:40.098Z,1.70
2022-11-29T04:13:58.483Z,1.10
2022-11-29T04:17:03.740Z,1.48
2022-11-29T04:19:36.397Z,1.20
2022-11-29T04:22:15.047Z,1.30
2022-11-29T04:25:02.287Z,1.08
2022-11-29T04:27:41.551Z,1.00
2022-11-29T04:30:52.961Z,1.30
2022-11-29T04:33:40.886Z,1.10
2022-11-29T04:36:28.382Z,1.48
2022-11-29T04:39:49.569Z,2.95
2022-11-29T04:42:39.586Z,2.15
2022-11-29T04:45:36.876Z,1.90
2022-11-29T04:48:28.480Z,2.13
2022-11-29T04:51:19.982Z,5.03
2022-11-29T04:54:33.123Z,5.10
2022-11-29T04:57:22.704Z,4.47
2022-11-29T05:00:06.390Z,4.18
2022-11-29T05:02:53.940Z,4.63
2022-11-29T05:05:43.454Z,4.32
2022-11-29T05:08:38.889Z,4.75
2022-11-29T05:11:41.068Z,5.13
2022-11-29T05:14:37.875Z,6.35
2022-11-29T05:17:33.395Z,9.52
2022-11-29T05:20:08.281Z,10.32
2022-11-29T05:23:01.754Z,10.40
2022-11-29T05:26:00.558Z,9.75
2022-11-29T05:28:50.111Z,9.50
2022-11-29T05:31:19.712Z,10.55
2022-11-29T05:34:31.657Z,9.45
2022-11-29T05:37:28.346Z,9.52
2022-11-29T05:40:06.438Z,9.35
2022-11-29T05:42:57.342Z,9.20
2022-11-29T05:45:32.462Z,6.80
2022-11-29T05:48:28.713Z,6.63
2022-11-29T05:51:26.396Z,5.80
2022-11-29T05:54:17.553Z,5.22
2022-11-29T05:57:23.390Z,5.75
2022-11-29T05:59:51.885Z,6.22
2022-11-29T06:02:27.820Z,6.55
2022-11-29T06:05:06.797Z,7.13
2022-11-29T06:07:50.164Z,6.95
2022-11-29T06:10:18.557Z,5.40
2022-11-29T06:13:06.520Z,5.30
2022-11-29T06:15:42.989Z,4.60
2022-11-29T06:18:29.201Z,3.90
2022-11-29T06:24:01.316Z,3.53
2022-11-29T06:26:53.945Z,3.00
2022-11-29T06:29:24.397Z,3.65
2022-11-29T06:32:17.169Z,2.50
2022-11-29T06:34:59.408Z,2.63
2022-11-29T06:37:33.756Z,2.60
2022-11-29T06:40:00.652Z,2.85
2022-11-29T06:42:29.425Z,2.38
2022-11-29T06:44:56.239Z,2.63
2022-11-29T06:47:39.905Z,2.75
2022-11-29T06:50:37.277Z,2.60
2022-11-29T06:53:41.015Z,2.53
2022-11-29T06:56:36.136Z,2.72
2022-11-29T06:59:42.481Z,2.50
2022-11-29T07:02:38.268Z,2.63
2022-11-29T07:05:23.713Z,2.25
2022-11-29T07:07:54.095Z,2.60
2022-11-29T07:10:23.236Z,2.40
2022-11-29T07:12:51.693Z,2.67
2022-11-29T07:15:21.739Z,2.50
2022-11-29T07:18:03.611Z,2.70
2022-11-29T07:20:41.655Z,2.30
2022-11-29T07:23:35.236Z,2.75
2022-11-29T07:26:12.043Z,2.60
2022-11-29T07:29:01.396Z,2.38
2022-11-29T07:31:38.983Z,2.58
2022-11-29T07:34:27.251Z,2.40
2022-11-29T07:37:03.649Z,3.83
2022-11-29T07:39:43.401Z,4.32
2022-11-29T07:42:36.010Z,3.42
2022-11-29T07:45:11.987Z,3.92
2022-11-29T07:47:38.660Z,3.08
2022-11-29T07:50:08.181Z,2.80
2022-11-29T07:52:34.971Z,2.90
2022-11-29T07:55:02.514Z,3.05
2022-11-29T07:57:31.261Z,2.75
2022-11-29T07:59:59.698Z,2.70
2022-11-29T08:02:30.708Z,2.97
2022-11-29T08:04:58.263Z,2.83
2022-11-29T08:07:25.599Z,2.60
2022-11-29T08:09:52.118Z,2.40
2022-11-29T08:12:18.682Z,2.25
2022-11-29T08:14:52.392Z,2.10
2022-11-29T08:22:19.433Z,1.85
2022-11-29T08:24:46.400Z,2.40
2022-11-29T08:27:13.638Z,2.13
2022-11-29T08:29:40.284Z,2.10
2022-11-29T08:32:06.897Z,1.83
2022-11-29T08:34:36.872Z,2.20
2022-11-29T08:37:03.513Z,2.03
2022-11-29T08:39:30.029Z,2.10
2022-11-29T08:41:56.566Z,2.50
2022-11-29T08:44:25.462Z,2.38
2022-11-29T08:47:10.876Z,2.17
2022-11-29T08:49:59.358Z,2.03
2022-11-29T08:52:44.502Z,2.22
2022-11-29T08:55:11.233Z,2.47
2022-11-29T08:57:40.604Z,2.58
2022-11-29T09:00:08.268Z,2.58
2022-11-29T09:02:38.348Z,2.67
2022-11-29T09:05:06.881Z,2.30
2022-11-29T09:07:34.136Z,2.55
2022-11-29T09:10:07.718Z,2.50
2022-11-29T09:12:38.674Z,3.40
2022-11-29T09:15:08.211Z,3.00
2022-11-29T09:17:34.930Z,2.85
2022-11-29T09:20:04.514Z,2.47
2022-11-29T09:22:31.446Z,2.50
2022-11-29T09:24:59.805Z,2.40
2022-11-29T09:27:26.349Z,2.20
2022-11-29T09:29:52.861Z,2.40
2022-11-29T09:32:19.450Z,2.10
2022-11-29T09:34:46.216Z,1.98
2022-11-29T09:37:12.872Z,2.20
2022-11-29T09:39:43.324Z,2.25
2022-11-29T09:42:27.246Z,2.20
2022-11-29T09:45:12.654Z,2.10
2022-11-29T09:48:00.868Z,2.67
2022-11-29T09:50:36.135Z,2.40
2022-11-29T09:53:18.462Z,2.72
2022-11-29T09:56:16.445Z,2.22
2022-11-29T09:58:51.918Z,2.90
2022-11-29T10:01:27.035Z,2.35
2022-11-29T10:03:57.377Z,2.80
2022-11-29T10:06:30.357Z,3.40
2022-11-29T10:09:08.449Z,2.90
2022-11-29T10:12:08.601Z,2.92
2022-11-29T10:14:46.088Z,3.05
2022-11-29T10:17:42.625Z,2.80
2022-11-29T10:20:17.866Z,2.90
2022-11-29T10:22:56.302Z,2.70
2022-11-29T10:25:46.914Z,3.65
2022-11-29T10:28:21.618Z,2.60
2022-11-29T10:30:49.127Z,3.33
2022-11-29T10:33:21.175Z,3.20
2022-11-29T10:35:51.468Z,2.80
2022-11-29T10:38:33.476Z,2.30
2022-11-29T10:44:02.305Z,2.40
2022-11-29T10:46:35.062Z,2.50
2022-11-29T10:49:07.286Z,2.40
2022-11-29T10:51:34.820Z,2.40
2022-11-29T10:54:31.928Z,2.58
2022-11-29T10:57:00.781Z,2.50
2022-11-29T10:59:30.643Z,2.83
2022-11-29T11:01:59.574Z,2.50
2022-11-29T11:04:37.496Z,2.72
2022-11-29T11:07:06.205Z,2.97
2022-11-29T11:09:36.611Z,2.70
2022-11-29T11:12:06.991Z,3.40
2022-11-29T11:14:40.651Z,2.70
2022-11-29T11:17:32.682Z,2.20
2022-11-29T11:20:07.473Z,2.00
2022-11-29T11:22:36.213Z,2.33
2022-11-29T11:25:35.146Z,2.03
2022-11-29T11:28:15.696Z,2.28
2022-11-29T11:30:56.559Z,2.35
2022-11-29T11:33:32.812Z,2.10
2022-11-29T11:36:15.116Z,2.40
2022-11-29T11:38:49.129Z,2.50
2022-11-29T11:41:49.714Z,2.47
2022-11-29T11:44:47.007Z,2.40
2022-11-29T11:47:20.405Z,2.20
2022-11-29T11:50:04.948Z,2.13
2022-11-29T11:52:50.707Z,1.80
2022-11-29T11:55:40.550Z,1.90
2022-11-29T11:58:19.257Z,1.70
2022-11-29T12:01:05.495Z,1.52
2022-11-29T12:03:54.128Z,2.05
2022-11-29T12:06:30.364Z,1.45
2022-11-29T12:09:11.322Z,1.73
2022-11-29T12:11:51.112Z,2.13
2022-11-29T12:14:28.693Z,1.98
2022-11-29T12:17:05.268Z,1.90
2022-11-29T12:19:41.084Z,2.05
2022-11-29T12:24:48.772Z,2.00
2022-11-29T12:27:28.775Z,2.10
2022-11-29T12:29:56.687Z,2.10
2022-11-29T12:32:59.222Z,1.80
2022-11-29T12:35:39.509Z,1.70
2022-11-29T12:38:54.624Z,1.88
2022-11-29T12:41:53.819Z,1.85
2022-11-29T12:44:30.625Z,1.70
2022-11-29T12:47:34.679Z,2.20
2022-11-29T12:49:57.225Z,1.98
2022-11-29T12:52:36.959Z,2.03
2022-11-29T12:55:26.541Z,1.70
2022-11-29T12:58:10.003Z,2.10
2022-11-29T13:00:47.776Z,1.83
2022-11-29T13:03:33.654Z,2.17
2022-11-29T13:06:20.257Z,2.13
2022-11-29T13:09:30.089Z,1.75
2022-11-29T13:12:35.329Z,1.80
2022-11-29T13:15:19.032Z,1.80
2022-11-29T13:17:50.172Z,1.83
2022-11-29T13:20:37.974Z,1.75
2022-11-29T13:23:13.995Z,1.92
2022-11-29T13:25:43.373Z,1.73
2022-11-29T13:28:23.771Z,1.92
2022-11-29T13:30:50.979Z,2.00
2022-11-29T13:33:24.783Z,2.92
2022-11-29T13:36:06.814Z,2.17
2022-11-29T13:38:43.517Z,2.90
2022-11-29T13:41:39.446Z,3.72
2022-11-29T13:44:15.414Z,3.57
2022-11-29T13:47:05.792Z,3.55
2022-11-29T13:49:58.505Z,3.97
2022-11-29T13:52:44.345Z,3.90
2022-11-29T13:55:11.436Z,3.00
2022-11-29T13:58:14.403Z,2.60
2022-11-29T14:00:43.998Z,2.88
2022-11-29T14:03:28.711Z,2.47
2022-11-29T14:06:08.685Z,2.40
2022-11-29T14:09:20.198Z,2.45
2022-11-29T14:11:44.797Z,2.63
2022-11-29T14:14:32.653Z,2.60
2022-11-29T14:17:20.666Z,2.20
2022-11-29T14:19:52.589Z,2.60
2022-11-29T14:22:21.655Z,2.58
2022-11-29T14:25:08.174Z,2.35
2022-11-29T14:27:54.315Z,3.33
2022-11-29T14:30:55.918Z,2.45
2022-11-29T14:33:46.813Z,1.90
2022-11-29T14:36:30.354Z,2.30
2022-11-29T14:39:11.992Z,2.42
2022-11-29T14:41:53.694Z,2.10
2022-11-29T14:44:32.180Z,2.50
2022-11-29T14:47:07.229Z,2.40
2022-11-29T14:49:43.409Z,2.30
2022-11-29T14:52:14.620Z,2.90
2022-11-29T14:55:09.332Z,2.60
2022-11-29T14:57:51.146Z,2.90
2022-11-29T15:00:27.481Z,2.80
2022-11-29T15:03:10.590Z,2.50
2022-11-29T15:05:44.646Z,2.17
2022-11-29T15:08:40.833Z,2.50
2022-11-29T15:11:10.275Z,2.22
2022-11-29T15:13:46.542Z,2.35
2022-11-29T15:16:45.892Z,2.85
2022-11-29T15:19:48.613Z,2.00
2022-11-29T15:22:37.908Z,2.30
2022-11-29T15:25:14.046Z,2.20
2022-11-29T15:27:50.612Z,2.00
2022-11-29T15:30:49.191Z,2.20
2022-11-29T15:33:20.464Z,2.22
2022-11-29T15:35:58.882Z,2.25
2022-11-29T15:38:25.560Z,2.08
2022-11-29T15:40:54.356Z,2.28
2022-11-29T15:43:30.493Z,1.92
2022-11-29T15:45:58.448Z,2.03
2022-11-29T15:48:33.169Z,1.77
2022-11-29T15:51:09.152Z,2.08
2022-11-29T15:53:47.617Z,1.77
2022-11-29T15:56:16.513Z,2.53
2022-11-29T15:58:44.974Z,1.77
2022-11-29T16:01:21.483Z,2.30
2022-11-29T16:03:52.985Z,2.47
2022-11-29T16:06:43.192Z,2.00
2022-11-29T16:09:49.874Z,2.70
2022-11-29T16:12:23.103Z,2.78
2022-11-29T16:14:52.618Z,2.72
2022-11-29T16:17:20.915Z,2.45
2022-11-29T16:19:50.353Z,2.38
2022-11-29T16:22:23.176Z,2.65
2022-11-29T16:25:10.912Z,2.60
2022-11-29T16:27:40.486Z,2.83
2022-11-29T16:30:19.757Z,2.33
2022-11-29T16:32:56.617Z,2.70
2022-11-29T16:35:29.077Z,2.75
2022-11-29T16:37:57.858Z,1.90
2022-11-29T16:40:32.754Z,2.30
2022-11-29T16:43:18.150Z,2.50
2022-11-29T16:45:46.746Z,2.57
2022-11-29T16:48:22.561Z,2.60
2022-11-29T16:53:47.778Z,2.75
2022-11-29T16:56:17.760Z,2.53
2022-11-29T16:59:25.666Z,2.60
2022-11-29T17:01:36.570Z,2.00
2022-11-29T17:04:03.127Z,2.70
2022-11-29T17:06:29.987Z,2.63
2022-11-29T17:09:05.597Z,3.00
2022-11-29T17:11:32.193Z,2.83
2022-11-29T17:13:58.724Z,2.42
2022-11-29T17:16:25.395Z,3.03
2022-11-29T17:18:52.992Z,2.85
2022-11-29T17:21:21.709Z,2.40
2022-11-29T17:23:50.580Z,2.40
2022-11-29T17:26:18.223Z,3.13
2022-11-29T17:28:46.698Z,3.97
2022-11-29T17:31:19.571Z,2.60
2022-11-29T17:33:46.132Z,3.17
2022-11-29T17:36:16.737Z,2.58
2022-11-29T17:38:44.994Z,3.38
2022-11-29T17:41:23.289Z,3.17
2022-11-29T17:43:53.190Z,4.35
2022-11-29T17:46:28.143Z,4.35
2022-11-29T17:48:57.274Z,3.43
2022-11-29T17:54:11.251Z,3.40
2022-11-29T17:56:40.117Z,3.00
2022-11-29T17:59:06.621Z,3.78
2022-11-29T18:01:36.682Z,3.17
2022-11-29T18:04:05.547Z,3.00
2022-11-29T18:06:39.650Z,3.25
2022-11-29T18:09:08.383Z,3.78
2022-11-29T18:14:43.316Z,3.20
2022-11-29T18:17:09.882Z,3.00
2022-11-29T18:19:36.401Z,3.85
2022-11-29T18:22:04.790Z,4.45
2022-11-29T18:24:31.281Z,3.38
2022-11-29T18:26:58.041Z,4.53
2022-11-29T18:29:24.709Z,3.90
2022-11-29T18:31:51.354Z,4.47
2022-11-29T18:34:17.792Z,3.85
2022-11-29T18:36:51.499Z,4.00
2022-11-29T18:39:19.908Z,4.22
2022-11-29T18:41:48.828Z,4.30
2022-11-29T18:44:19.615Z,4.10
2022-11-29T18:46:46.217Z,4.40
2022-11-29T18:49:15.166Z,4.55
2022-11-29T18:51:44.947Z,5.25
2022-11-29T18:54:12.143Z,4.90
2022-11-29T18:56:39.446Z,4.80
2022-11-29T18:59:12.673Z,4.40
2022-11-29T19:01:42.446Z,5.20
2022-11-29T19:04:12.178Z,5.40
2022-11-29T19:06:52.266Z,4.32
2022-11-29T19:09:21.648Z,3.80
2022-11-29T19:11:50.735Z,4.00
2022-11-29T19:14:21.809Z,4.78
2022-11-29T19:16:49.277Z,4.70
2022-11-29T19:19:15.831Z,4.45
2022-11-29T19:21:44.361Z,3.75
2022-11-29T19:24:15.036Z,5.00
2022-11-29T19:26:44.547Z,5.50
2022-11-29T19:29:12.224Z,4.30
2022-11-29T19:31:39.453Z,5.10
2022-11-29T19:34:06.632Z,5.03
2022-11-29T19:36:33.164Z,5.07
2022-11-29T19:39:01.682Z,4.45
2022-11-29T19:41:33.224Z,4.35
2022-11-29T19:44:07.800Z,4.90
2022-11-29T19:46:37.471Z,4.90
2022-11-29T19:49:18.984Z,4.95
2022-11-29T19:51:55.799Z,6.00
2022-11-29T19:54:30.893Z,6.28
2022-11-29T19:56:58.813Z,5.18
2022-11-29T19:59:25.436Z,5.57
2022-11-29T20:01:52.054Z,7.00
2022-11-29T20:04:18.621Z,5.55
2022-11-29T20:06:45.221Z,5.55
2022-11-29T20:09:24.038Z,5.40
2022-11-29T20:11:56.029Z,5.63
2022-11-29T20:14:22.611Z,5.53
2022-11-29T20:16:51.279Z,5.70
2022-11-29T20:19:17.795Z,5.50
2022-11-29T20:21:47.727Z,6.20
2022-11-29T20:24:16.000Z,5.78
2022-11-29T20:26:46.574Z,6.03
2022-11-29T20:29:14.740Z,7.65
2022-11-29T20:31:49.095Z,8.43
2022-11-29T20:34:17.148Z,7.65
2022-11-29T20:36:54.257Z,6.38
2022-11-29T20:39:30.250Z,6.43
2022-11-29T20:42:16.472Z,6.80
2022-11-29T20:47:26.201Z,6.30
2022-11-29T20:49:55.081Z,6.47
2022-11-29T20:53:01.859Z,6.25
2022-11-29T20:55:30.590Z,7.15
2022-11-29T20:57:57.058Z,9.80
2022-11-29T21:00:25.703Z,8.95
2022-11-29T21:02:52.214Z,7.68
2022-11-29T21:05:18.670Z,7.03
2022-11-29T21:07:53.654Z,6.55
2022-11-29T21:10:20.173Z,6.75
2022-11-29T21:12:47.255Z,8.05
2022-11-29T21:15:16.584Z,7.30
2022-11-29T21:17:44.371Z,7.10
2022-11-29T21:20:22.799Z,6.97
2022-11-29T21:23:13.651Z,7.35
2022-11-29T21:25:59.232Z,6.88
2022-11-29T21:28:32.297Z,7.18
2022-11-29T21:30:59.105Z,7.47
2022-11-29T21:33:26.094Z,8.45
2022-11-29T21:35:58.024Z,6.97
2022-11-29T21:38:26.202Z,7.90
2022-11-29T21:41:01.197Z,7.55
2022-11-29T21:43:57.834Z,7.60
2022-11-29T21:46:14.442Z,7.00
2022-11-29T21:48:42.406Z,6.88
2022-11-29T21:51:10.785Z,7.05
2022-11-29T21:53:40.472Z,7.10
2022-11-29T21:56:09.379Z,8.57
2022-11-29T21:58:37.560Z,7.60
2022-11-29T22:01:17.264Z,8.20
2022-11-29T22:03:46.097Z,8.02
2022-11-29T22:06:16.407Z,7.68
2022-11-29T22:08:43.149Z,7.65
2022-11-29T22:11:12.567Z,7.40
2022-11-29T22:14:01.176Z,8.40
2022-11-29T22:16:28.440Z,7.40
2022-11-29T22:18:54.950Z,7.90
2022-11-29T22:21:21.979Z,7.85
2022-11-29T22:23:48.440Z,7.13
2022-11-29T22:26:14.935Z,8.23
2022-11-29T22:28:43.221Z,8.15
2022-11-29T22:31:12.431Z,7.68
2022-11-29T22:33:39.092Z,8.27
2022-11-29T22:36:11.269Z,8.27
2022-11-29T22:38:39.059Z,7.30
2022-11-29T22:41:08.156Z,10.65
2022-11-29T22:43:37.430Z,8.63
2022-11-29T22:46:15.631Z,10.60
2022-11-29T22:48:55.176Z,10.13
2022-11-29T22:51:30.544Z,11.07
2022-11-29T22:54:05.148Z,8.65
2022-11-29T22:56:34.397Z,9.15
2022-11-29T22:59:03.499Z,8.57
2022-11-29T23:01:32.064Z,9.32
2022-11-29T23:04:00.700Z,8.50
2022-11-29T23:06:29.905Z,8.13
2022-11-29T23:08:59.931Z,8.77
2022-11-29T23:11:29.610Z,12.75
2022-11-29T23:13:56.689Z,8.57
2022-11-29T23:16:28.880Z,8.38
2022-11-29T23:18:58.115Z,9.63
2022-11-29T23:21:31.306Z,9.30
2022-11-29T23:24:00.806Z,8.35
2022-11-29T23:26:31.857Z,10.15
2022-11-29T23:29:00.368Z,9.55
2022-11-29T23:31:26.991Z,10.00
2022-11-29T23:33:53.892Z,10.07
2022-11-29T23:36:20.567Z,10.15
2022-11-29T23:38:49.096Z,10.88
2022-11-29T23:41:16.052Z,9.57
2022-11-29T23:43:44.381Z,9.88
2022-11-29T23:46:14.887Z,9.70
2022-11-29T23:48:43.955Z,10.13
2022-11-29T23:51:13.739Z,9.90
2022-11-29T23:53:40.861Z,10.35
2022-11-29T23:56:13.139Z,11.15
2022-11-29T23:58:41.369Z,9.98
